CKK2104 ZUCK-ZSPD
Flight info
| Callsign | CKK2104 |
|---|---|
| Flight time | 1h 58m |
| Altitude | 35100 |
| Route | OLNER7W OLNER B213 WHA R343 EKIMU |
| Aircraft | B77L/H-SDE1E2E3FGHIJ2J3J4J5M1RWXY/LB1D1 |
Departure
| Time | 2026-04-18 05:31 |
|---|---|
| Airport | Chongqing Jiangbei International Airport (ZUCK) |
Arrival
| Time | 2026-04-18 07:30 |
|---|---|
| Airport | Shanghai Pudong International Airport (ZSPD) |
| Time | Latitude | Longitude | Altitude | Speed | Heading |
|---|---|---|---|---|---|
| 2026-04-18 04:28 | 29.72464 | 106.65502 | 1352 ft | 0 kts | 17° |
| 2026-04-18 05:05 | 29.72462 | 106.65501 | 1352 ft | 1 kts | 18° |
| 2026-04-18 05:06 | 29.72446 | 106.65495 | 1354 ft | 3 kts | 17° |
| 2026-04-18 05:06 | 29.72430 | 106.65489 | 1352 ft | 3 kts | 15° |
| 2026-04-18 05:06 | 29.72414 | 106.65486 | 1353 ft | 3 kts | 344° |
| 2026-04-18 05:06 | 29.72405 | 106.65490 | 1352 ft | 3 kts | 300° |
| 2026-04-18 05:07 | 29.72398 | 106.65509 | 1352 ft | 3 kts | 281° |
| 2026-04-18 05:07 | 29.72394 | 106.65532 | 1353 ft | 3 kts | 284° |
| 2026-04-18 05:07 | 29.72392 | 106.65543 | 1353 ft | 0 kts | 288° |
| 2026-04-18 05:10 | 29.72396 | 106.65528 | 1378 ft | 8 kts | 288° |
| 2026-04-18 05:11 | 29.72415 | 106.65457 | 1356 ft | 10 kts | 286° |
| 2026-04-18 05:11 | 29.72441 | 106.65360 | 1358 ft | 14 kts | 287° |
| 2026-04-18 05:11 | 29.72486 | 106.65267 | 1358 ft | 14 kts | 303° |
| 2026-04-18 05:11 | 29.72506 | 106.65160 | 1358 ft | 14 kts | 279° |
| 2026-04-18 05:12 | 29.72551 | 106.65074 | 1360 ft | 14 kts | 345° |
| 2026-04-18 05:12 | 29.72641 | 106.65105 | 1361 ft | 14 kts | 20° |
| 2026-04-18 05:12 | 29.72731 | 106.65138 | 1360 ft | 14 kts | 15° |
| 2026-04-18 05:12 | 29.72823 | 106.65167 | 1360 ft | 14 kts | 15° |
| 2026-04-18 05:13 | 29.72914 | 106.65200 | 1360 ft | 14 kts | 17° |
| 2026-04-18 05:13 | 29.73005 | 106.65231 | 1359 ft | 14 kts | 16° |
| 2026-04-18 05:13 | 29.73096 | 106.65263 | 1360 ft | 14 kts | 17° |
| 2026-04-18 05:13 | 29.73187 | 106.65294 | 1359 ft | 14 kts | 17° |
| 2026-04-18 05:14 | 29.73278 | 106.65326 | 1359 ft | 14 kts | 17° |
| 2026-04-18 05:14 | 29.73369 | 106.65357 | 1360 ft | 14 kts | 17° |
| 2026-04-18 05:14 | 29.73460 | 106.65389 | 1358 ft | 14 kts | 13° |
| 2026-04-18 05:14 | 29.73548 | 106.65360 | 1361 ft | 14 kts | 10° |
| 2026-04-18 05:15 | 29.73638 | 106.65408 | 1358 ft | 14 kts | 25° |
| 2026-04-18 05:15 | 29.73729 | 106.65454 | 1356 ft | 14 kts | 21° |
| 2026-04-18 05:15 | 29.73819 | 106.65502 | 1356 ft | 14 kts | 27° |
| 2026-04-18 05:15 | 29.73842 | 106.65592 | 1357 ft | 14 kts | 140° |
| 2026-04-18 05:16 | 29.73753 | 106.65563 | 1357 ft | 15 kts | 217° |
| 2026-04-18 05:16 | 29.73662 | 106.65513 | 1357 ft | 15 kts | 204° |
| 2026-04-18 05:16 | 29.73571 | 106.65464 | 1358 ft | 15 kts | 207° |
| 2026-04-18 05:16 | 29.73483 | 106.65406 | 1361 ft | 15 kts | 211° |
| 2026-04-18 05:17 | 29.73388 | 106.65364 | 1359 ft | 15 kts | 198° |
| 2026-04-18 05:17 | 29.73292 | 106.65330 | 1360 ft | 15 kts | 197° |
| 2026-04-18 05:17 | 29.73191 | 106.65296 | 1359 ft | 18 kts | 196° |
| 2026-04-18 05:17 | 29.73060 | 106.65250 | 1361 ft | 20 kts | 197° |
| 2026-04-18 05:18 | 29.72955 | 106.65214 | 1358 ft | 7 kts | 195° |
| 2026-04-18 05:18 | 29.72910 | 106.65228 | 1361 ft | 7 kts | 135° |
| 2026-04-18 05:18 | 29.72872 | 106.65266 | 1359 ft | 9 kts | 160° |
| 2026-04-18 05:18 | 29.72791 | 106.65251 | 1359 ft | 12 kts | 196° |
| 2026-04-18 05:19 | 29.72706 | 106.65237 | 1358 ft | 13 kts | 162° |
| 2026-04-18 05:19 | 29.72672 | 106.65328 | 1359 ft | 13 kts | 104° |
| 2026-04-18 05:19 | 29.72646 | 106.65429 | 1356 ft | 13 kts | 109° |
| 2026-04-18 05:19 | 29.72606 | 106.65586 | 1354 ft | 26 kts | 107° |
| 2026-04-18 05:20 | 29.72553 | 106.65784 | 1350 ft | 26 kts | 107° |
| 2026-04-18 05:20 | 29.72501 | 106.65982 | 1343 ft | 26 kts | 107° |
| 2026-04-18 05:20 | 29.72456 | 106.66169 | 1337 ft | 21 kts | 91° |
| 2026-04-18 05:20 | 29.72503 | 106.66210 | 1336 ft | 9 kts | 12° |
| 2026-04-18 05:21 | 29.72586 | 106.66235 | 1336 ft | 21 kts | 17° |
| 2026-04-18 05:21 | 29.72734 | 106.66286 | 1335 ft | 22 kts | 16° |
| 2026-04-18 05:21 | 29.72883 | 106.66335 | 1334 ft | 22 kts | 16° |
| 2026-04-18 05:21 | 29.73031 | 106.66387 | 1333 ft | 22 kts | 17° |
| 2026-04-18 05:22 | 29.73179 | 106.66440 | 1331 ft | 22 kts | 17° |
| 2026-04-18 05:22 | 29.73326 | 106.66490 | 1330 ft | 22 kts | 18° |
| 2026-04-18 05:22 | 29.73474 | 106.66542 | 1329 ft | 22 kts | 17° |
| 2026-04-18 05:22 | 29.73599 | 106.66585 | 1328 ft | 15 kts | 17° |
| 2026-04-18 05:23 | 29.73701 | 106.66620 | 1327 ft | 15 kts | 16° |
| 2026-04-18 05:23 | 29.73804 | 106.66654 | 1327 ft | 15 kts | 16° |
| 2026-04-18 05:23 | 29.73906 | 106.66688 | 1325 ft | 15 kts | 16° |
| 2026-04-18 05:23 | 29.73992 | 106.66716 | 1324 ft | 15 kts | 15° |
| 2026-04-18 05:24 | 29.74072 | 106.66745 | 1324 ft | 15 kts | 18° |
| 2026-04-18 05:25 | 29.74174 | 106.66781 | 1323 ft | 15 kts | 17° |
| 2026-04-18 05:25 | 29.74276 | 106.66816 | 1322 ft | 15 kts | 17° |
| 2026-04-18 05:25 | 29.74378 | 106.66851 | 1321 ft | 15 kts | 16° |
| 2026-04-18 05:25 | 29.74480 | 106.66885 | 1320 ft | 15 kts | 16° |
| 2026-04-18 05:26 | 29.74582 | 106.66921 | 1320 ft | 15 kts | 17° |
| 2026-04-18 05:26 | 29.74683 | 106.66960 | 1319 ft | 15 kts | 14° |
| 2026-04-18 05:26 | 29.74763 | 106.67023 | 1318 ft | 15 kts | 76° |
| 2026-04-18 05:26 | 29.74740 | 106.67126 | 1316 ft | 10 kts | 110° |
| 2026-04-18 05:27 | 29.74735 | 106.67141 | 1316 ft | 0 kts | 110° |
| 2026-04-18 05:27 | 29.74733 | 106.67147 | 1316 ft | 1 kts | 110° |
| 2026-04-18 05:27 | 29.74728 | 106.67164 | 1316 ft | 8 kts | 108° |
| 2026-04-18 05:27 | 29.74690 | 106.67261 | 1316 ft | 12 kts | 148° |
| 2026-04-18 05:28 | 29.74624 | 106.67247 | 1316 ft | 0 kts | 199° |
| 2026-04-18 05:28 | 29.74621 | 106.67246 | 1316 ft | 4 kts | 199° |
| 2026-04-18 05:28 | 29.74485 | 106.67198 | 1317 ft | 37 kts | 195° |
| 2026-04-18 05:29 | 29.74095 | 106.67063 | 1321 ft | 89 kts | 197° |
| 2026-04-18 05:29 | 29.73302 | 106.66788 | 1327 ft | 147 kts | 196° |
| 2026-04-18 05:29 | 29.72622 | 106.66554 | 1342 ft | 174 kts | 196° |
| 2026-04-18 05:30 | 29.71520 | 106.66173 | 1570 ft | 184 kts | 195° |
| 2026-04-18 05:30 | 29.71241 | 106.66084 | 1687 ft | 185 kts | 194° |
| 2026-04-18 05:31 | 29.70338 | 106.65929 | 1992 ft | 187 kts | 173° |
| 2026-04-18 05:31 | 29.69081 | 106.66234 | 2491 ft | 184 kts | 177° |
| 2026-04-18 05:32 | 29.67793 | 106.66092 | 3022 ft | 188 kts | 186° |
| 2026-04-18 05:32 | 29.66424 | 106.65976 | 3428 ft | 211 kts | 183° |
| 2026-04-18 05:32 | 29.64851 | 106.65898 | 3677 ft | 241 kts | 182° |
| 2026-04-18 05:32 | 29.63142 | 106.65817 | 4233 ft | 255 kts | 182° |
| 2026-04-18 05:33 | 29.61331 | 106.65741 | 4877 ft | 266 kts | 182° |
| 2026-04-18 05:33 | 29.59466 | 106.65697 | 5630 ft | 268 kts | 175° |
| 2026-04-18 05:33 | 29.57706 | 106.66349 | 6333 ft | 271 kts | 144° |
| 2026-04-18 05:33 | 29.56442 | 106.67944 | 7086 ft | 274 kts | 120° |
| 2026-04-18 05:34 | 29.55765 | 106.70001 | 7715 ft | 280 kts | 105° |
| 2026-04-18 05:34 | 29.55320 | 106.72215 | 8379 ft | 287 kts | 103° |
| 2026-04-18 05:34 | 29.54902 | 106.74477 | 9089 ft | 292 kts | 102° |
| 2026-04-18 05:34 | 29.54479 | 106.76786 | 9783 ft | 298 kts | 102° |
| 2026-04-18 05:35 | 29.54038 | 106.79140 | 10343 ft | 308 kts | 102° |
| 2026-04-18 05:35 | 29.53565 | 106.81639 | 10545 ft | 332 kts | 102° |
| 2026-04-18 05:35 | 29.53048 | 106.84326 | 10734 ft | 357 kts | 102° |
| 2026-04-18 05:35 | 29.52487 | 106.87200 | 10959 ft | 379 kts | 102° |
| 2026-04-18 05:36 | 29.51900 | 106.90202 | 11545 ft | 389 kts | 102° |
| 2026-04-18 05:36 | 29.51608 | 106.93260 | 12090 ft | 396 kts | 85° |
| 2026-04-18 05:36 | 29.52242 | 106.96328 | 12837 ft | 395 kts | 69° |
| 2026-04-18 05:36 | 29.53186 | 106.99325 | 13570 ft | 403 kts | 68° |
| 2026-04-18 05:37 | 29.54133 | 107.02370 | 14318 ft | 408 kts | 68° |
| 2026-04-18 05:37 | 29.55076 | 107.05460 | 15053 ft | 412 kts | 68° |
| 2026-04-18 05:37 | 29.56022 | 107.08605 | 15700 ft | 419 kts | 68° |
| 2026-04-18 05:37 | 29.56972 | 107.11785 | 16423 ft | 423 kts | 68° |
| 2026-04-18 05:38 | 29.57929 | 107.15002 | 17148 ft | 429 kts | 68° |
| 2026-04-18 05:38 | 29.58897 | 107.18269 | 17833 ft | 434 kts | 68° |
| 2026-04-18 05:38 | 29.59878 | 107.21581 | 18462 ft | 440 kts | 68° |
| 2026-04-18 05:38 | 29.60867 | 107.24925 | 19067 ft | 445 kts | 68° |
| 2026-04-18 05:39 | 29.61987 | 107.28242 | 19688 ft | 443 kts | 59° |
| 2026-04-18 05:39 | 29.63581 | 107.31271 | 20246 ft | 445 kts | 52° |
| 2026-04-18 05:39 | 29.65350 | 107.34215 | 20848 ft | 449 kts | 51° |
| 2026-04-18 05:39 | 29.67157 | 107.37159 | 21464 ft | 453 kts | 51° |
| 2026-04-18 05:40 | 29.68967 | 107.40143 | 22050 ft | 457 kts | 51° |
| 2026-04-18 05:40 | 29.70771 | 107.43177 | 22623 ft | 462 kts | 52° |
| 2026-04-18 05:40 | 29.72570 | 107.46255 | 23242 ft | 466 kts | 52° |
| 2026-04-18 05:40 | 29.74376 | 107.49380 | 23774 ft | 471 kts | 52° |
| 2026-04-18 05:41 | 29.76188 | 107.52538 | 24281 ft | 475 kts | 52° |
| 2026-04-18 05:41 | 29.78014 | 107.55723 | 24803 ft | 478 kts | 52° |
| 2026-04-18 05:41 | 29.79830 | 107.58890 | 25284 ft | 482 kts | 52° |
| 2026-04-18 05:41 | 29.81685 | 107.62129 | 25748 ft | 486 kts | 52° |
| 2026-04-18 05:42 | 29.83554 | 107.65394 | 26260 ft | 490 kts | 52° |
| 2026-04-18 05:42 | 29.85435 | 107.68679 | 26756 ft | 493 kts | 52° |
| 2026-04-18 05:42 | 29.87332 | 107.71997 | 27241 ft | 497 kts | 53° |
| 2026-04-18 05:42 | 29.89239 | 107.75332 | 27703 ft | 500 kts | 53° |
| 2026-04-18 05:43 | 29.91159 | 107.78693 | 28132 ft | 504 kts | 53° |
| 2026-04-18 05:43 | 29.93046 | 107.82118 | 28569 ft | 509 kts | 57° |
| 2026-04-18 05:43 | 29.94431 | 107.85910 | 28969 ft | 518 kts | 70° |
| 2026-04-18 05:43 | 29.95420 | 107.89928 | 29445 ft | 522 kts | 72° |
| 2026-04-18 05:44 | 29.96325 | 107.93983 | 29942 ft | 522 kts | 73° |
| 2026-04-18 05:44 | 29.97233 | 107.98035 | 30430 ft | 521 kts | 72° |
| 2026-04-18 05:44 | 29.98180 | 108.02072 | 30883 ft | 521 kts | 72° |
| 2026-04-18 05:44 | 29.99166 | 108.06099 | 31282 ft | 521 kts | 71° |
| 2026-04-18 05:45 | 30.00179 | 108.10118 | 31709 ft | 522 kts | 71° |
| 2026-04-18 05:45 | 30.01190 | 108.14093 | 32060 ft | 523 kts | 71° |
| 2026-04-18 05:45 | 30.02214 | 108.18124 | 32442 ft | 524 kts | 71° |
| 2026-04-18 05:45 | 30.03234 | 108.22158 | 32837 ft | 524 kts | 71° |
| 2026-04-18 05:46 | 30.04247 | 108.26193 | 33249 ft | 524 kts | 71° |
| 2026-04-18 05:46 | 30.05264 | 108.30247 | 33576 ft | 525 kts | 71° |
| 2026-04-18 05:46 | 30.06274 | 108.34290 | 33910 ft | 525 kts | 71° |
| 2026-04-18 05:46 | 30.07283 | 108.38344 | 34227 ft | 525 kts | 71° |
| 2026-04-18 05:47 | 30.08291 | 108.42409 | 34562 ft | 525 kts | 71° |
| 2026-04-18 05:47 | 30.09294 | 108.46460 | 34835 ft | 526 kts | 71° |
| 2026-04-18 05:47 | 30.10305 | 108.50544 | 35007 ft | 530 kts | 71° |
| 2026-04-18 05:47 | 30.11322 | 108.54660 | 35061 ft | 532 kts | 71° |
| 2026-04-18 05:48 | 30.13495 | 108.62781 | 35071 ft | 525 kts | 68° |
| 2026-04-18 05:48 | 30.15875 | 108.70669 | 35083 ft | 523 kts | 68° |
| 2026-04-18 05:49 | 30.18234 | 108.78618 | 35087 ft | 523 kts | 68° |
| 2026-04-18 05:49 | 30.20154 | 108.85260 | 35082 ft | 524 kts | 69° |
| 2026-04-18 05:50 | 30.22460 | 108.93255 | 35088 ft | 524 kts | 69° |
| 2026-04-18 05:50 | 30.24867 | 109.02735 | 35084 ft | 526 kts | 72° |
| 2026-04-18 05:51 | 30.26480 | 109.09529 | 35082 ft | 526 kts | 71° |
| 2026-04-18 05:51 | 30.28465 | 109.17664 | 35095 ft | 526 kts | 71° |
| 2026-04-18 05:52 | 30.30472 | 109.25806 | 35092 ft | 526 kts | 71° |
| 2026-04-18 05:52 | 30.32445 | 109.33966 | 35096 ft | 526 kts | 72° |
| 2026-04-18 05:53 | 30.34390 | 109.42080 | 35072 ft | 526 kts | 71° |
| 2026-04-18 05:53 | 30.36343 | 109.50230 | 35094 ft | 525 kts | 71° |
| 2026-04-18 05:54 | 30.38300 | 109.58385 | 35078 ft | 526 kts | 71° |
| 2026-04-18 05:54 | 30.39826 | 109.66687 | 35088 ft | 528 kts | 78° |
| 2026-04-18 05:55 | 30.41010 | 109.75089 | 35096 ft | 528 kts | 78° |
| 2026-04-18 05:55 | 30.42219 | 109.83508 | 35085 ft | 530 kts | 78° |
| 2026-04-18 05:56 | 30.43442 | 109.91875 | 35086 ft | 530 kts | 78° |
| 2026-04-18 05:56 | 30.44675 | 110.00317 | 35078 ft | 531 kts | 78° |
| 2026-04-18 05:57 | 30.46513 | 110.13005 | 35085 ft | 532 kts | 78° |
| 2026-04-18 05:58 | 30.47730 | 110.21469 | 35085 ft | 532 kts | 78° |
| 2026-04-18 05:58 | 30.48943 | 110.29940 | 35080 ft | 532 kts | 78° |
| 2026-04-18 05:59 | 30.50149 | 110.38402 | 35059 ft | 532 kts | 78° |
| 2026-04-18 05:59 | 30.51339 | 110.46798 | 35078 ft | 531 kts | 78° |
| 2026-04-18 06:00 | 30.52534 | 110.55263 | 35070 ft | 532 kts | 78° |
| 2026-04-18 06:00 | 30.53725 | 110.63739 | 35062 ft | 533 kts | 78° |
| 2026-04-18 06:01 | 30.54910 | 110.72228 | 35060 ft | 533 kts | 78° |
| 2026-04-18 06:01 | 30.56091 | 110.80715 | 35075 ft | 534 kts | 78° |
| 2026-04-18 06:02 | 30.57270 | 110.89226 | 35071 ft | 534 kts | 78° |
| 2026-04-18 06:02 | 30.58441 | 110.97732 | 35067 ft | 534 kts | 78° |
| 2026-04-18 06:03 | 30.59607 | 111.06244 | 35067 ft | 534 kts | 78° |
| 2026-04-18 06:03 | 30.60764 | 111.14727 | 35055 ft | 534 kts | 78° |
| 2026-04-18 06:04 | 30.61920 | 111.23246 | 35052 ft | 534 kts | 78° |
| 2026-04-18 06:04 | 30.63068 | 111.31781 | 35050 ft | 535 kts | 78° |
| 2026-04-18 06:05 | 30.64205 | 111.40302 | 35059 ft | 535 kts | 78° |
| 2026-04-18 06:05 | 30.65293 | 111.48855 | 35055 ft | 536 kts | 82° |
| 2026-04-18 06:06 | 30.65790 | 111.57519 | 35048 ft | 538 kts | 85° |
| 2026-04-18 06:06 | 30.66213 | 111.66197 | 35054 ft | 538 kts | 85° |
| 2026-04-18 06:07 | 30.66670 | 111.74872 | 35056 ft | 538 kts | 85° |
| 2026-04-18 06:07 | 30.67090 | 111.83563 | 35052 ft | 539 kts | 85° |
| 2026-04-18 06:08 | 30.67504 | 111.92209 | 35055 ft | 539 kts | 85° |
| 2026-04-18 06:08 | 30.67960 | 112.00910 | 35055 ft | 539 kts | 84° |
| 2026-04-18 06:09 | 30.68565 | 112.09605 | 35055 ft | 540 kts | 84° |
| 2026-04-18 06:09 | 30.69191 | 112.18298 | 35056 ft | 540 kts | 84° |
| 2026-04-18 06:10 | 30.69788 | 112.27003 | 35045 ft | 540 kts | 84° |
| 2026-04-18 06:10 | 30.70364 | 112.35713 | 35047 ft | 541 kts | 84° |
| 2026-04-18 06:11 | 30.70933 | 112.44434 | 35064 ft | 542 kts | 84° |
| 2026-04-18 06:11 | 30.71507 | 112.53266 | 35069 ft | 553 kts | 84° |
| 2026-04-18 06:12 | 30.72081 | 112.62188 | 35052 ft | 558 kts | 84° |
| 2026-04-18 06:12 | 30.72652 | 112.71179 | 35049 ft | 558 kts | 84° |
| 2026-04-18 06:13 | 30.73217 | 112.80169 | 35056 ft | 557 kts | 85° |
| 2026-04-18 06:13 | 30.73776 | 112.89158 | 35055 ft | 557 kts | 85° |
| 2026-04-18 06:14 | 30.74328 | 112.98138 | 35050 ft | 557 kts | 85° |
| 2026-04-18 06:14 | 30.74874 | 113.07116 | 35049 ft | 557 kts | 85° |
| 2026-04-18 06:15 | 30.75406 | 113.16102 | 35051 ft | 557 kts | 86° |
| 2026-04-18 06:15 | 30.75691 | 113.25099 | 35053 ft | 557 kts | 88° |
| 2026-04-18 06:16 | 30.75856 | 113.34044 | 35053 ft | 557 kts | 88° |
| 2026-04-18 06:16 | 30.76051 | 113.43052 | 35051 ft | 558 kts | 88° |
| 2026-04-18 06:17 | 30.76276 | 113.52070 | 35055 ft | 558 kts | 88° |
| 2026-04-18 06:17 | 30.76501 | 113.61109 | 35055 ft | 559 kts | 88° |
| 2026-04-18 06:18 | 30.76715 | 113.70148 | 35055 ft | 560 kts | 88° |
| 2026-04-18 06:18 | 30.76921 | 113.79194 | 35057 ft | 560 kts | 88° |
| 2026-04-18 06:19 | 30.77121 | 113.88264 | 35061 ft | 561 kts | 88° |
| 2026-04-18 06:19 | 30.77316 | 113.97340 | 35061 ft | 562 kts | 88° |
| 2026-04-18 06:20 | 30.77571 | 114.06432 | 35067 ft | 562 kts | 86° |
| 2026-04-18 06:20 | 30.78096 | 114.15445 | 35070 ft | 562 kts | 81° |
| 2026-04-18 06:21 | 30.79630 | 114.24336 | 35074 ft | 561 kts | 72° |
| 2026-04-18 06:21 | 30.82249 | 114.32854 | 35081 ft | 558 kts | 65° |
| 2026-04-18 06:22 | 30.85071 | 114.41292 | 35069 ft | 559 kts | 66° |
| 2026-04-18 06:22 | 30.87790 | 114.49777 | 35058 ft | 560 kts | 66° |
| 2026-04-18 06:23 | 30.90531 | 114.58262 | 35060 ft | 560 kts | 66° |
| 2026-04-18 06:23 | 30.93281 | 114.66755 | 35053 ft | 560 kts | 66° |
| 2026-04-18 06:24 | 30.96000 | 114.75190 | 35062 ft | 559 kts | 66° |
| 2026-04-18 06:24 | 30.98725 | 114.83680 | 35057 ft | 559 kts | 67° |
| 2026-04-18 06:25 | 31.01448 | 114.92182 | 35059 ft | 558 kts | 67° |
| 2026-04-18 06:25 | 31.04169 | 115.00651 | 35064 ft | 558 kts | 66° |
| 2026-04-18 06:26 | 31.06902 | 115.09123 | 35065 ft | 557 kts | 66° |
| 2026-04-18 06:26 | 31.09604 | 115.17537 | 35055 ft | 557 kts | 66° |
| 2026-04-18 06:27 | 31.12297 | 115.26006 | 35071 ft | 556 kts | 67° |
| 2026-04-18 06:27 | 31.14965 | 115.34486 | 35066 ft | 556 kts | 66° |
| 2026-04-18 06:28 | 31.17705 | 115.42923 | 35055 ft | 555 kts | 66° |
| 2026-04-18 06:28 | 31.20439 | 115.51350 | 35078 ft | 554 kts | 66° |
| 2026-04-18 06:29 | 31.23156 | 115.59801 | 35077 ft | 555 kts | 67° |
| 2026-04-18 06:29 | 31.25857 | 115.68243 | 35084 ft | 554 kts | 67° |
| 2026-04-18 06:30 | 31.28538 | 115.76633 | 35080 ft | 555 kts | 66° |
| 2026-04-18 06:30 | 31.31239 | 115.85089 | 35071 ft | 554 kts | 67° |
| 2026-04-18 06:31 | 31.33951 | 115.93522 | 35088 ft | 554 kts | 66° |
| 2026-04-18 06:31 | 31.36700 | 116.01934 | 35078 ft | 553 kts | 66° |
| 2026-04-18 06:32 | 31.39449 | 116.10350 | 35079 ft | 553 kts | 66° |
| 2026-04-18 06:32 | 31.42180 | 116.18762 | 35091 ft | 552 kts | 67° |
| 2026-04-18 06:33 | 31.44899 | 116.27176 | 35077 ft | 553 kts | 67° |
| 2026-04-18 06:33 | 31.47614 | 116.35598 | 35083 ft | 552 kts | 67° |
| 2026-04-18 06:34 | 31.50326 | 116.44030 | 35081 ft | 552 kts | 67° |
| 2026-04-18 06:34 | 31.53027 | 116.52448 | 35080 ft | 552 kts | 67° |
| 2026-04-18 06:35 | 31.55703 | 116.60812 | 35090 ft | 551 kts | 67° |
| 2026-04-18 06:35 | 31.58391 | 116.69234 | 35086 ft | 551 kts | 67° |
| 2026-04-18 06:36 | 31.61074 | 116.77664 | 35087 ft | 551 kts | 67° |
| 2026-04-18 06:36 | 31.63294 | 116.84654 | 35087 ft | 550 kts | 68° |
| 2026-04-18 06:37 | 31.65961 | 116.93077 | 35089 ft | 550 kts | 68° |
| 2026-04-18 06:37 | 31.68621 | 117.01496 | 35094 ft | 550 kts | 68° |
| 2026-04-18 06:38 | 31.71683 | 117.11351 | 35094 ft | 550 kts | 68° |
| 2026-04-18 06:38 | 31.74281 | 117.19767 | 35098 ft | 549 kts | 68° |
| 2026-04-18 06:39 | 31.76218 | 117.26927 | 35093 ft | 551 kts | 77° |
| 2026-04-18 06:39 | 31.77113 | 117.35793 | 35099 ft | 551 kts | 89° |
| 2026-04-18 06:40 | 31.76640 | 117.44766 | 35098 ft | 550 kts | 96° |
| 2026-04-18 06:40 | 31.75911 | 117.53699 | 35096 ft | 550 kts | 96° |
| 2026-04-18 06:41 | 31.75234 | 117.62660 | 35096 ft | 551 kts | 96° |
| 2026-04-18 06:41 | 31.74601 | 117.71649 | 35097 ft | 551 kts | 96° |
| 2026-04-18 06:42 | 31.73969 | 117.80631 | 35092 ft | 552 kts | 96° |
| 2026-04-18 06:42 | 31.73321 | 117.89642 | 35093 ft | 552 kts | 96° |
| 2026-04-18 06:43 | 31.72670 | 117.98577 | 35093 ft | 553 kts | 96° |
| 2026-04-18 06:43 | 31.72008 | 118.07588 | 35104 ft | 553 kts | 96° |
| 2026-04-18 06:44 | 31.71356 | 118.16598 | 35099 ft | 554 kts | 96° |
| 2026-04-18 06:44 | 31.70733 | 118.25613 | 35097 ft | 554 kts | 96° |
| 2026-04-18 06:45 | 31.70106 | 118.34646 | 35099 ft | 554 kts | 96° |
| 2026-04-18 06:45 | 31.69467 | 118.43671 | 35099 ft | 555 kts | 96° |
| 2026-04-18 06:46 | 31.68818 | 118.52690 | 35097 ft | 555 kts | 97° |
| 2026-04-18 06:46 | 31.68162 | 118.61727 | 35096 ft | 555 kts | 97° |
| 2026-04-18 06:47 | 31.67500 | 118.70774 | 35091 ft | 556 kts | 97° |
| 2026-04-18 06:47 | 31.66837 | 118.79735 | 35098 ft | 556 kts | 97° |
| 2026-04-18 06:48 | 31.66162 | 118.88779 | 35092 ft | 557 kts | 97° |
| 2026-04-18 06:48 | 31.65481 | 118.97843 | 35097 ft | 557 kts | 97° |
| 2026-04-18 06:49 | 31.64804 | 119.06835 | 35093 ft | 555 kts | 96° |
| 2026-04-18 06:49 | 31.64420 | 119.15781 | 35081 ft | 544 kts | 95° |
| 2026-04-18 06:50 | 31.64040 | 119.24657 | 35098 ft | 544 kts | 95° |
| 2026-04-18 06:50 | 31.63623 | 119.33531 | 35092 ft | 545 kts | 95° |
| 2026-04-18 06:51 | 31.63205 | 119.42417 | 35095 ft | 546 kts | 96° |
| 2026-04-18 06:51 | 31.62778 | 119.51330 | 35089 ft | 547 kts | 96° |
| 2026-04-18 06:52 | 31.62346 | 119.60253 | 35091 ft | 548 kts | 96° |
| 2026-04-18 06:52 | 31.61909 | 119.69175 | 35094 ft | 549 kts | 96° |
| 2026-04-18 06:53 | 31.61492 | 119.78137 | 35091 ft | 550 kts | 96° |
| 2026-04-18 06:53 | 31.61080 | 119.87119 | 35093 ft | 551 kts | 96° |
| 2026-04-18 06:54 | 31.60658 | 119.96099 | 35094 ft | 552 kts | 96° |
| 2026-04-18 06:54 | 31.60228 | 120.05033 | 35086 ft | 552 kts | 96° |
| 2026-04-18 06:55 | 31.59789 | 120.14027 | 35090 ft | 552 kts | 96° |
| 2026-04-18 06:55 | 31.59346 | 120.23016 | 35086 ft | 553 kts | 96° |
| 2026-04-18 06:56 | 31.58509 | 120.31952 | 35100 ft | 548 kts | 105° |
| 2026-04-18 06:56 | 31.56480 | 120.40501 | 35094 ft | 541 kts | 115° |
| 2026-04-18 06:57 | 31.53926 | 120.48819 | 35081 ft | 542 kts | 115° |
| 2026-04-18 06:57 | 31.50130 | 120.61338 | 35078 ft | 544 kts | 115° |
| 2026-04-18 06:58 | 31.47648 | 120.69657 | 35085 ft | 545 kts | 115° |
| 2026-04-18 06:58 | 31.45144 | 120.78033 | 35076 ft | 545 kts | 115° |
| 2026-04-18 06:59 | 31.42629 | 120.86409 | 35080 ft | 545 kts | 115° |
| 2026-04-18 06:59 | 31.40106 | 120.94784 | 35073 ft | 545 kts | 115° |
| 2026-04-18 07:00 | 31.37417 | 121.03032 | 35063 ft | 532 kts | 127° |
| 2026-04-18 07:00 | 31.35271 | 121.06467 | 34943 ft | 516 kts | 143° |
| 2026-04-18 07:00 | 31.32539 | 121.09066 | 34385 ft | 498 kts | 158° |
| 2026-04-18 07:01 | 31.29617 | 121.10826 | 33801 ft | 467 kts | 168° |
| 2026-04-18 07:01 | 31.26575 | 121.11945 | 33198 ft | 453 kts | 178° |
| 2026-04-18 07:01 | 31.23497 | 121.12332 | 32601 ft | 441 kts | 185° |
| 2026-04-18 07:01 | 31.20424 | 121.12580 | 32031 ft | 443 kts | 184° |
| 2026-04-18 07:02 | 31.17357 | 121.12854 | 31440 ft | 441 kts | 184° |
| 2026-04-18 07:02 | 31.14307 | 121.13145 | 30866 ft | 439 kts | 183° |
| 2026-04-18 07:02 | 31.11263 | 121.13449 | 30303 ft | 437 kts | 183° |
| 2026-04-18 07:02 | 31.08252 | 121.13757 | 29956 ft | 429 kts | 183° |
| 2026-04-18 07:03 | 31.05360 | 121.14064 | 29964 ft | 416 kts | 183° |
| 2026-04-18 07:03 | 31.02487 | 121.14362 | 29988 ft | 417 kts | 183° |
| 2026-04-18 07:03 | 30.96571 | 121.14950 | 29983 ft | 432 kts | 183° |
| 2026-04-18 07:04 | 30.90577 | 121.15563 | 29692 ft | 428 kts | 183° |
| 2026-04-18 07:04 | 30.87636 | 121.15872 | 29521 ft | 422 kts | 183° |
| 2026-04-18 07:04 | 30.84719 | 121.16174 | 29142 ft | 420 kts | 184° |
| 2026-04-18 07:05 | 30.81806 | 121.16472 | 28715 ft | 420 kts | 183° |
| 2026-04-18 07:05 | 30.78893 | 121.16767 | 28329 ft | 419 kts | 183° |
| 2026-04-18 07:05 | 30.75993 | 121.17063 | 28000 ft | 417 kts | 183° |
| 2026-04-18 07:05 | 30.73108 | 121.17357 | 27680 ft | 415 kts | 183° |
| 2026-04-18 07:06 | 30.70241 | 121.17650 | 27359 ft | 413 kts | 183° |
| 2026-04-18 07:06 | 30.67381 | 121.17941 | 27030 ft | 412 kts | 183° |
| 2026-04-18 07:06 | 30.64535 | 121.18230 | 26715 ft | 410 kts | 183° |
| 2026-04-18 07:06 | 30.61687 | 121.18517 | 26437 ft | 410 kts | 183° |
| 2026-04-18 07:07 | 30.58858 | 121.18804 | 26203 ft | 405 kts | 183° |
| 2026-04-18 07:07 | 30.56044 | 121.19091 | 25902 ft | 406 kts | 183° |
| 2026-04-18 07:07 | 30.53227 | 121.19377 | 25713 ft | 407 kts | 183° |
| 2026-04-18 07:07 | 30.50447 | 121.19661 | 25613 ft | 405 kts | 183° |
| 2026-04-18 07:08 | 30.47634 | 121.19946 | 25322 ft | 406 kts | 183° |
| 2026-04-18 07:08 | 30.44812 | 121.20231 | 24847 ft | 407 kts | 182° |
| 2026-04-18 07:08 | 30.42002 | 121.20517 | 24391 ft | 405 kts | 182° |
| 2026-04-18 07:08 | 30.39223 | 121.21025 | 23913 ft | 410 kts | 169° |
| 2026-04-18 07:09 | 30.36642 | 121.22535 | 23440 ft | 425 kts | 150° |
| 2026-04-18 07:09 | 30.34517 | 121.24977 | 22908 ft | 437 kts | 131° |
| 2026-04-18 07:09 | 30.33108 | 121.28128 | 22387 ft | 447 kts | 111° |
| 2026-04-18 07:09 | 30.32645 | 121.31699 | 21864 ft | 453 kts | 89° |
| 2026-04-18 07:10 | 30.33228 | 121.35269 | 21390 ft | 452 kts | 68° |
| 2026-04-18 07:10 | 30.34699 | 121.38391 | 20886 ft | 443 kts | 54° |
| 2026-04-18 07:10 | 30.36424 | 121.41337 | 20413 ft | 441 kts | 53° |
| 2026-04-18 07:10 | 30.38175 | 121.44301 | 19932 ft | 438 kts | 53° |
| 2026-04-18 07:11 | 30.39858 | 121.47173 | 19467 ft | 436 kts | 54° |
| 2026-04-18 07:11 | 30.41543 | 121.50085 | 19009 ft | 434 kts | 54° |
| 2026-04-18 07:11 | 30.43210 | 121.52996 | 18551 ft | 432 kts | 54° |
| 2026-04-18 07:11 | 30.44856 | 121.55893 | 18068 ft | 429 kts | 54° |
| 2026-04-18 07:12 | 30.46489 | 121.58777 | 17549 ft | 426 kts | 54° |
| 2026-04-18 07:12 | 30.48103 | 121.61633 | 17043 ft | 423 kts | 55° |
| 2026-04-18 07:12 | 30.49715 | 121.64486 | 16543 ft | 420 kts | 55° |
| 2026-04-18 07:12 | 30.51310 | 121.67311 | 16027 ft | 417 kts | 55° |
| 2026-04-18 07:13 | 30.52892 | 121.70112 | 15564 ft | 414 kts | 55° |
| 2026-04-18 07:13 | 30.54466 | 121.72902 | 15068 ft | 411 kts | 55° |
| 2026-04-18 07:13 | 30.56101 | 121.75567 | 14572 ft | 400 kts | 44° |
| 2026-04-18 07:13 | 30.58262 | 121.77529 | 14094 ft | 391 kts | 25° |
| 2026-04-18 07:14 | 30.60765 | 121.78646 | 13631 ft | 379 kts | 10° |
| 2026-04-18 07:14 | 30.63317 | 121.79333 | 13126 ft | 375 kts | 9° |
| 2026-04-18 07:14 | 30.65861 | 121.79982 | 12619 ft | 373 kts | 9° |
| 2026-04-18 07:14 | 30.68384 | 121.80628 | 12120 ft | 370 kts | 10° |
| 2026-04-18 07:15 | 30.70895 | 121.81283 | 11622 ft | 368 kts | 11° |
| 2026-04-18 07:15 | 30.73350 | 121.81936 | 11137 ft | 366 kts | 11° |
| 2026-04-18 07:15 | 30.75819 | 121.82601 | 10666 ft | 363 kts | 12° |
| 2026-04-18 07:15 | 30.78274 | 121.83267 | 10188 ft | 361 kts | 12° |
| 2026-04-18 07:16 | 30.80714 | 121.83932 | 9701 ft | 358 kts | 12° |
| 2026-04-18 07:16 | 30.83125 | 121.84590 | 9212 ft | 355 kts | 12° |
| 2026-04-18 07:16 | 30.85443 | 121.85224 | 8969 ft | 345 kts | 12° |
| 2026-04-18 07:16 | 30.87742 | 121.85851 | 8731 ft | 335 kts | 12° |
| 2026-04-18 07:17 | 30.89984 | 121.86462 | 8494 ft | 326 kts | 12° |
| 2026-04-18 07:17 | 30.92182 | 121.86759 | 8216 ft | 316 kts | 353° |
| 2026-04-18 07:17 | 30.94274 | 121.86038 | 8020 ft | 316 kts | 332° |
| 2026-04-18 07:17 | 30.96070 | 121.84551 | 7833 ft | 319 kts | 319° |
| 2026-04-18 07:18 | 30.97722 | 121.82828 | 7617 ft | 319 kts | 318° |
| 2026-04-18 07:18 | 30.99385 | 121.81125 | 7392 ft | 317 kts | 319° |
| 2026-04-18 07:18 | 31.01046 | 121.79441 | 7186 ft | 316 kts | 319° |
| 2026-04-18 07:18 | 31.02705 | 121.77775 | 6966 ft | 314 kts | 319° |
| 2026-04-18 07:19 | 31.04323 | 121.76127 | 6737 ft | 312 kts | 319° |
| 2026-04-18 07:19 | 31.05960 | 121.74435 | 6531 ft | 310 kts | 319° |
| 2026-04-18 07:19 | 31.07551 | 121.72790 | 6314 ft | 308 kts | 319° |
| 2026-04-18 07:19 | 31.09152 | 121.71136 | 6090 ft | 307 kts | 319° |
| 2026-04-18 07:20 | 31.10731 | 121.69506 | 5866 ft | 305 kts | 319° |
| 2026-04-18 07:20 | 31.12173 | 121.68021 | 5653 ft | 302 kts | 320° |
| 2026-04-18 07:20 | 31.13941 | 121.66752 | 5581 ft | 301 kts | 340° |
| 2026-04-18 07:20 | 31.16029 | 121.66018 | 5644 ft | 332 kts | 344° |
| 2026-04-18 07:21 | 31.18354 | 121.65220 | 5659 ft | 356 kts | 343° |
| 2026-04-18 07:21 | 31.20732 | 121.64370 | 5669 ft | 361 kts | 342° |
| 2026-04-18 07:21 | 31.23126 | 121.63504 | 5964 ft | 356 kts | 342° |
| 2026-04-18 07:21 | 31.25485 | 121.62648 | 6156 ft | 357 kts | 342° |
| 2026-04-18 07:22 | 31.27530 | 121.61881 | 6153 ft | 361 kts | 342° |
| 2026-04-18 07:22 | 31.29925 | 121.60966 | 6190 ft | 364 kts | 342° |
| 2026-04-18 07:22 | 31.32294 | 121.60060 | 6397 ft | 348 kts | 341° |
| 2026-04-18 07:22 | 31.34559 | 121.59384 | 6061 ft | 325 kts | 354° |
| 2026-04-18 07:23 | 31.36733 | 121.59661 | 5675 ft | 308 kts | 18° |
| 2026-04-18 07:23 | 31.38536 | 121.60756 | 5451 ft | 279 kts | 36° |
| 2026-04-18 07:23 | 31.39889 | 121.62230 | 5241 ft | 254 kts | 46° |
| 2026-04-18 07:23 | 31.40960 | 121.63775 | 4964 ft | 239 kts | 55° |
| 2026-04-18 07:24 | 31.41477 | 121.64901 | 4795 ft | 239 kts | 69° |
| 2026-04-18 07:24 | 31.41587 | 121.66815 | 4605 ft | 240 kts | 105° |
| 2026-04-18 07:24 | 31.40719 | 121.68494 | 4186 ft | 251 kts | 140° |
| 2026-04-18 07:24 | 31.39160 | 121.69380 | 3907 ft | 247 kts | 162° |
| 2026-04-18 07:25 | 31.37570 | 121.69970 | 3828 ft | 231 kts | 161° |
| 2026-04-18 07:25 | 31.35577 | 121.70719 | 3409 ft | 227 kts | 162° |
| 2026-04-18 07:25 | 31.34072 | 121.71271 | 3100 ft | 220 kts | 161° |
| 2026-04-18 07:25 | 31.33111 | 121.71630 | 3090 ft | 212 kts | 161° |
| 2026-04-18 07:26 | 31.31738 | 121.72150 | 3005 ft | 202 kts | 161° |
| 2026-04-18 07:26 | 31.30455 | 121.72638 | 2953 ft | 192 kts | 161° |
| 2026-04-18 07:26 | 31.29191 | 121.73119 | 2888 ft | 193 kts | 161° |
| 2026-04-18 07:26 | 31.27906 | 121.73608 | 2600 ft | 192 kts | 161° |
| 2026-04-18 07:27 | 31.26649 | 121.74086 | 2344 ft | 187 kts | 161° |
| 2026-04-18 07:27 | 31.25437 | 121.74551 | 2139 ft | 185 kts | 161° |
| 2026-04-18 07:27 | 31.24199 | 121.75018 | 1902 ft | 186 kts | 162° |
| 2026-04-18 07:27 | 31.23005 | 121.75467 | 1599 ft | 172 kts | 161° |
| 2026-04-18 07:28 | 31.21927 | 121.75879 | 1361 ft | 157 kts | 160° |
| 2026-04-18 07:28 | 31.20887 | 121.76280 | 1181 ft | 159 kts | 161° |
| 2026-04-18 07:28 | 31.19832 | 121.76676 | 967 ft | 159 kts | 160° |
| 2026-04-18 07:28 | 31.18776 | 121.77077 | 767 ft | 160 kts | 160° |
| 2026-04-18 07:29 | 31.17732 | 121.77453 | 524 ft | 158 kts | 160° |
| 2026-04-18 07:29 | 31.16739 | 121.77839 | 314 ft | 145 kts | 157° |
| 2026-04-18 07:29 | 31.15765 | 121.78227 | 121 ft | 148 kts | 161° |
| 2026-04-18 07:29 | 31.14808 | 121.78588 | 27 ft | 137 kts | 162° |
| 2026-04-18 07:30 | 31.14063 | 121.78871 | 29 ft | 86 kts | 161° |
| 2026-04-18 07:30 | 31.13617 | 121.79039 | 27 ft | 44 kts | 162° |
| 2026-04-18 07:30 | 31.13380 | 121.79129 | 28 ft | 24 kts | 161° |
| 2026-04-18 07:30 | 31.13213 | 121.79163 | 30 ft | 24 kts | 181° |
| 2026-04-18 07:31 | 31.13092 | 121.79145 | 28 ft | 11 kts | 190° |
| 2026-04-18 07:31 | 31.13013 | 121.79129 | 27 ft | 12 kts | 190° |
| 2026-04-18 07:31 | 31.12988 | 121.79123 | 27 ft | 0 kts | 190° |
| 2026-04-18 07:31 | 31.12981 | 121.79122 | 27 ft | 3 kts | 191° |
| 2026-04-18 07:32 | 31.12916 | 121.79113 | 26 ft | 10 kts | 180° |
| 2026-04-18 07:32 | 31.12844 | 121.79124 | 27 ft | 10 kts | 166° |
| 2026-04-18 07:32 | 31.12774 | 121.79148 | 27 ft | 10 kts | 162° |
| 2026-04-18 07:32 | 31.12709 | 121.79168 | 27 ft | 2 kts | 183° |
| 2026-04-18 07:33 | 31.12699 | 121.79154 | 27 ft | 4 kts | 237° |
| 2026-04-18 07:33 | 31.12685 | 121.79125 | 27 ft | 4 kts | 240° |
| 2026-04-18 07:33 | 31.12663 | 121.79099 | 27 ft | 6 kts | 210° |
| 2026-04-18 07:33 | 31.12608 | 121.79104 | 27 ft | 9 kts | 180° |
| 2026-04-18 07:34 | 31.12570 | 121.79055 | 27 ft | 7 kts | 248° |
| 2026-04-18 07:34 | 31.12562 | 121.79030 | 27 ft | 0 kts | 251° |
| 2026-04-18 07:34 | 31.12559 | 121.79017 | 27 ft | 5 kts | 251° |
| 2026-04-18 07:34 | 31.12554 | 121.79001 | 27 ft | 0 kts | 252° |
| 2026-04-18 07:35 | 31.12553 | 121.78997 | 27 ft | 0 kts | 252° |
| 2026-04-18 07:35 | 31.27248 | 121.73858 | 2478 ft | 189 kts | 161° |